Date,TemperatureHighF,TemperatureAvgF,TemperatureLowF,DewpointHighF,DewpointAvgF,DewpointLowF,HumidityHigh,HumidityAvg,HumidityLow,PressureMaxIn,PressureMinIn,WindSpeedMaxMPH,WindSpeedAvgMPH,GustSpeedMaxMPH,PrecipitationSumIn
2013-2-1,25.9,21.4,15.3,18.0,9.3,8.0,76,56,47,29.61,29.08,20,4,25,0.00
2013-2-2,22.2,16.7,8.4,18.0,10.7,4.0,92,74,51,29.73,29.57,14,2,15,0.00
2013-2-3,26.8,19.2,13.1,21.0,14.3,11.0,95,80,55,29.58,29.27,8,2,9,0.00
2013-2-4,26.2,19.3,12.8,21.0,7.5,0.0,94,60,30,29.44,29.25,25,3,26,0.00
2013-2-5,27.6,14.5,2.8,11.0,3.9,0.0,81,59,33,29.58,29.44,8,2,8,0.00
2013-2-6,33.6,23.2,12.8,28.0,13.2,-6.0,89,62,39,29.87,29.43,16,4,18,0.00
2013-2-7,22.7,14.2,6.8,4.0,-1.1,-6.0,63,45,32,30.09,29.86,15,4,15,0.00
2013-2-8,23.1,19.6,16.7,18.0,13.3,0.0,95,76,36,30.00,29.39,17,3,17,0.00
2013-2-9,20.4,14.7,5.9,16.0,7.8,0.0,94,71,53,29.85,29.38,32,9,32,0.01
2013-2-10,34.4,10.0,-9.1,16.0,3.1,-6.0,92,71,27,30.02,29.84,5,0,5,0.06
2013-2-11,29.6,19.1,4.7,31.0,17.3,4.0,100,90,77,29.87,29.16,6,0,6,0.00
2013-2-12,40.4,34.0,27.4,33.0,28.6,23.0,100,81,64,29.41,29.16,18,3,21,0.20
2013-2-13,38.7,30.2,20.7,31.0,22.0,18.0,94,71,46,29.41,29.30,11,1,11,0.04
2013-2-14,39.2,29.1,23.8,26.0,21.9,18.0,88,73,43,29.52,29.28,14,1,16,0.02
2013-2-15,47.4,32.7,23.3,31.0,24.2,18.0,89,72,41,29.51,29.43,20,2,21,0.01
2013-2-16,32.8,27.8,21.7,28.0,18.8,4.0,96,69,39,29.53,29.39,19,4,22,0.00
2013-2-17,21.6,16.1,12.0,8.0,4.5,0.0,65,54,45,29.39,29.08,31,9,34,0.01
2013-2-18,27.5,16.9,10.0,4.0,-0.5,-6.0,63,46,22,29.67,29.31,22,4,24,0.00
2013-2-19,39.4,24.3,8.5,32.0,14.7,0.0,98,65,35,29.71,29.13,15,2,15,0.09
2013-2-20,32.3,27.5,21.7,32.0,21.9,14.0,99,78,57,29.30,29.11,16,2,20,0.01
2013-2-21,24.7,20.6,14.7,21.0,13.6,11.0,88,72,57,29.86,29.30,23,5,24,0.00
2013-2-22,37.7,29.8,24.5,28.0,21.8,18.0,91,69,49,29.97,29.83,14,2,15,0.04
2013-2-23,33.5,31.6,27.6,32.0,27.2,21.0,99,82,68,29.83,29.50,11,1,13,0.02
2013-2-24,36.6,32.7,30.1,37.0,32.9,31.0,100,99,97,29.50,29.33,5,0,5,0.29
2013-2-25,36.8,32.1,28.3,37.0,31.8,28.0,100,98,85,29.79,29.48,8,1,9,0.09
2013-2-26,40.2,33.9,29.1,39.0,32.1,29.0,100,92,81,29.90,29.72,9,1,10,0.00
2013-2-27,35.6,33.7,31.4,33.0,31.7,28.0,98,92,77,29.73,29.21,16,4,17,0.19
2013-2-28,42.9,35.6,31.0,43.0,34.9,31.0,100,97,85,29.21,29.12,9,1,9,0.02